Time;durP1;ratioP1;P1;durP2;ratioP2;P2;SDS_P1;SDS_P2;PMS_P1;PMS_P2;Temp;Humidity;BMP_temperature;BMP_pressure;BME280_temperature;BME280_humidity;BME280_pressure;Samples;Min_cycle;Max_cycle;Signal;HPM_P1;HPM_P2
2022/04/29 00:03:53;;;;;;;;;;;;;;;;;;;;;
2022/04/29 00:06:20;;;;;;;4.07;2.07;;;;;;;17.55;68.72;99439.31;5926531;24;20160;-94
2022/04/29 00:09:24;;;;;;;;;;;;;;;;;;;;;
2022/04/29 00:11:53;;;;;;;3.37;1.90;;;;;;;17.41;69.71;99442.97;6215129;23;20620;-94
2022/04/29 00:14:29;;;;;;;3.87;2.37;;;;;;;17.46;69.73;99439.97;6216102;23;20164;-94
2022/04/29 00:17:17;;;;;;;6.63;1.90;;;;;;;17.45;69.95;99446.25;6215513;23;20152;-95
2022/04/29 00:20:26;;;;;;;3.90;1.63;;;;;;;17.40;70.40;99440.44;6214966;23;20157;-94
2022/04/29 00:23:08;;;;;;;4.07;2.20;;;;;;;17.45;70.57;99438.28;6170363;23;20157;-94
2022/04/29 00:25:49;;;;;;;6.13;1.90;;;;;;;17.45;70.07;99433.81;6216256;23;20160;-94
2022/04/29 00:28:18;;;;;;;4.13;1.93;;;;;;;17.51;70.12;99422.75;6214947;23;20192;-94
2022/04/29 00:30:44;;;;;;;3.97;1.77;;;;;;;17.52;69.88;99435.06;6215208;23;20150;-94
2022/04/29 00:33:10;;;;;;;4.07;1.80;;;;;;;17.43;69.98;99442.84;6240726;23;20538;-94
2022/04/29 00:35:35;;;;;;;4.40;2.07;;;;;;;17.38;70.00;99448.50;6215302;23;20169;-94
2022/04/29 00:38:27;;;;;;;;;;;;;;;;;;;;;
2022/04/29 00:40:55;;;;;;;4.97;1.97;;;;;;;17.39;70.48;99444.91;6216721;23;20223;-94
2022/04/29 00:43:20;;;;;;;3.33;1.90;;;;;;;17.40;70.38;99440.44;6215483;23;20156;-94
2022/04/29 00:45:55;;;;;;;6.50;1.70;;;;;;;17.38;70.58;99442.34;6214732;23;20226;-93
2022/04/29 00:48:33;;;;;;;4.63;2.00;;;;;;;17.33;70.79;99440.03;6241445;23;20176;-94
2022/04/29 00:51:18;;;;;;;4.03;2.10;;;;;;;17.27;71.17;99434.38;6213740;23;20156;-94
2022/04/29 00:54:09;;;;;;;;;;;;;;;;;;;;;
2022/04/29 00:56:56;;;;;;;5.10;2.10;;;;;;;17.36;70.43;99417.78;6216118;23;20227;-94
2022/04/29 01:02:54;;;;;;;4.53;2.07;;;;;;;17.42;69.85;99410.22;6201506;23;20158;-93
2022/04/29 01:10:02;;;;;;;;;;;;;;;;;;;;;
2022/04/29 01:13:25;;;;;;;3.77;1.93;;;;;;;17.40;70.54;99414.75;6207779;23;20276;-94
2022/04/29 01:31:37;;;;;;;;;;;;;;;;;;;;;
2022/04/29 01:34:15;;;;;;;;;;;;;;;;;;;;;
2022/04/29 01:37:30;;;;;;;;;;;;;;;;;;;;;
2022/04/29 01:41:08;;;;;;;;;;;;;;;;;;;;;
2022/04/29 01:47:59;;;;;;;;;;;;;;;;;;;;;
2022/04/29 01:54:22;;;;;;;;;;;;;;;;;;;;;
2022/04/29 01:57:36;;;;;;;4.80;2.00;;;;;;;17.12;70.28;99370.13;6124586;23;20246;-93
2022/04/29 02:00:10;;;;;;;3.97;2.00;;;;;;;17.23;69.72;99371.97;6124441;23;20573;-93
2022/04/29 02:06:18;;;;;;;4.50;2.20;;;;;;;17.06;70.47;99381.19;6097064;23;20203;-93
2022/04/29 02:08:48;;;;;;;3.97;1.87;;;;;;;17.04;70.52;99380.44;6099877;23;20195;-93
2022/04/29 02:11:17;;;;;;;5.67;2.37;;;;;;;17.00;71.15;99369.28;6166568;23;20167;-92
2022/04/29 02:16:50;;;;;;;;;;;;;;;;;;;;;
2022/04/29 02:19:18;;;;;;;4.10;2.17;;;;;;;17.03;71.53;99379.59;6216228;23;20216;-92
2022/04/29 02:21:46;;;;;;;4.97;2.50;;;;;;;17.06;71.61;99367.94;6214836;23;20165;-92
2022/04/29 02:24:14;;;;;;;3.87;1.90;;;;;;;17.13;70.97;99367.38;6242297;23;20173;-92
2022/04/29 02:26:55;;;;;;;5.20;2.13;;;;;;;17.11;71.03;99371.94;6216714;23;20164;-93
2022/04/29 02:29:28;;;;;;;4.50;2.00;;;;;;;17.11;71.54;99371.13;6216991;23;20158;-93
2022/04/29 02:31:56;;;;;;;6.30;2.50;;;;;;;17.16;71.05;99369.78;6216463;23;20168;-93
2022/04/29 02:34:23;;;;;;;4.73;2.20;;;;;;;17.25;70.46;99375.34;6216463;23;20166;-93
2022/04/29 02:36:54;;;;;;;4.17;2.10;;;;;;;17.25;70.56;99362.94;6216317;23;20161;-94
2022/04/29 02:42:30;;;;;;;5.00;2.57;;;;;;;17.16;71.22;99374.25;6211979;23;20247;-93
2022/04/29 02:44:56;;;;;;;9.70;2.47;;;;;;;17.14;71.80;99381.44;6217525;23;20157;-93
2022/04/29 02:47:21;;;;;;;3.80;1.90;;;;;;;17.12;71.49;99378.06;6216126;23;20189;-93
2022/04/29 02:49:48;;;;;;;3.00;1.77;;;;;;;16.99;72.44;99386.09;6218269;23;20162;-93
2022/04/29 02:52:15;;;;;;;3.33;1.70;;;;;;;16.96;72.87;99393.41;6216431;23;20156;-92
2022/04/29 02:54:41;;;;;;;4.17;1.53;;;;;;;16.90;72.98;99393.91;6217383;23;20145;-94
2022/04/29 02:57:07;;;;;;;3.33;1.57;;;;;;;16.81;73.58;99386.63;6216637;23;20163;-92
2022/04/29 02:59:33;;;;;;;3.27;1.27;;;;;;;16.81;73.74;99394.56;6241768;23;20599;-93
2022/04/29 03:01:58;;;;;;;4.00;1.93;;;;;;;16.72;74.12;99404.03;6216189;23;20176;-94
2022/04/29 03:04:24;;;;;;;4.23;1.90;;;;;;;16.81;74.08;99407.81;6241407;23;20162;-94
2022/04/29 03:06:53;;;;;;;8.17;2.53;;;;;;;16.85;73.85;99414.59;6216651;23;20182;-94
2022/04/29 03:09:27;;;;;;;2.67;1.43;;;;;;;16.84;73.94;99412.88;6217038;23;20185;-94
2022/04/29 03:11:53;;;;;;;3.67;1.80;;;;;;;16.91;73.70;99416.75;6217691;23;20153;-94
2022/04/29 03:14:21;;;;;;;3.23;1.53;;;;;;;16.94;73.46;99413.88;6216288;23;20201;-94
2022/04/29 03:16:46;;;;;;;3.60;1.77;;;;;;;16.90;73.47;99420.38;6241315;23;20150;-94
2022/04/29 03:19:45;;;;;;;;;;;;;;;;;;;;;
2022/04/29 03:22:18;;;;;;;5.93;3.70;;;;;;;17.05;73.36;99429.84;6217447;23;20216;-93
2022/04/29 03:24:49;;;;;;;4.63;2.53;;;;;;;17.13;73.13;99424.81;6216420;23;20196;-94
2022/04/29 03:27:17;;;;;;;6.77;3.33;;;;;;;17.06;73.00;99434.16;6216142;23;20157;-93
2022/04/29 03:29:43;;;;;;;4.57;2.50;;;;;;;16.95;73.34;99434.97;6215760;23;20183;-92
2022/04/29 03:32:09;;;;;;;4.13;1.93;;;;;;;16.79;73.32;99439.69;6216978;23;20493;-93
2022/04/29 03:34:34;;;;;;;5.43;2.00;;;;;;;16.54;74.17;99437.13;6240409;23;20168;-94
2022/04/29 03:37:00;;;;;;;4.17;2.13;;;;;;;16.37;75.23;99438.31;6215968;23;20151;-92
2022/04/29 03:39:25;;;;;;;8.77;2.60;;;;;;;16.40;75.66;99437.25;6216984;23;20149;-94
2022/04/29 03:41:51;;;;;;;6.90;2.57;;;;;;;16.37;76.15;99442.75;6241951;23;20157;-92
2022/04/29 03:44:17;;;;;;;5.93;2.80;;;;;;;16.21;77.24;99447.44;6215743;23;20608;-91
2022/04/29 03:46:42;;;;;;;4.27;2.23;;;;;;;15.98;78.73;99449.88;6216595;23;20533;-92
2022/04/29 03:51:52;;;;;;;6.33;3.37;;;;;;;16.12;78.79;99442.78;6217417;23;20145;-93
2022/04/29 03:54:18;;;;;;;5.00;3.10;;;;;;;16.12;78.84;99446.28;6216207;23;20159;-92
2022/04/29 03:56:44;;;;;;;7.93;2.73;;;;;;;16.14;78.94;99454.94;6215569;23;20187;-92
2022/04/29 03:59:09;;;;;;;6.23;2.70;;;;;;;16.20;78.82;99453.69;6216670;23;20150;-94
2022/04/29 04:01:35;;;;;;;9.07;2.97;;;;;;;16.21;78.50;99450.09;6216949;23;20167;-93
2022/04/29 04:04:03;;;;;;;5.73;2.83;;;;;;;16.18;78.65;99459.09;6216574;23;20577;-92
2022/04/29 04:09:13;;;;;;;4.90;2.50;;;;;;;16.25;78.62;99457.69;6216849;23;20246;-92
2022/04/29 04:11:38;;;;;;;5.63;3.53;;;;;;;16.26;78.41;99462.03;6216806;23;20191;-93
2022/04/29 04:14:04;;;;;;;6.30;2.77;;;;;;;16.35;78.78;99464.00;6216388;23;20162;-92
2022/04/29 04:16:29;;;;;;;4.80;2.93;;;;;;;16.45;78.34;99462.44;6216453;23;20497;-91
2022/04/29 04:18:58;;;;;;;7.03;3.77;;;;;;;16.57;78.09;99466.03;6215290;23;20155;-93
2022/04/29 04:21:24;;;;;;;9.10;3.83;;;;;;;16.58;78.00;99468.56;6210927;23;20186;-92
2022/04/29 04:23:49;;;;;;;8.57;4.47;;;;;;;16.47;78.50;99465.81;6240527;23;20577;-91
2022/04/29 04:26:15;;;;;;;7.63;3.77;;;;;;;16.57;78.35;99466.88;6216565;23;20190;-93
2022/04/29 04:28:40;;;;;;;7.03;3.67;;;;;;;16.62;78.43;99468.31;6215461;23;20176;-92
2022/04/29 04:31:06;;;;;;;8.67;4.70;;;;;;;16.69;78.06;99474.88;6216421;23;20160;-92
2022/04/29 04:33:31;;;;;;;9.37;4.23;;;;;;;16.63;78.47;99477.97;6216511;23;20557;-92
2022/04/29 04:36:00;;;;;;;7.37;3.73;;;;;;;16.68;78.36;99478.47;6216177;23;20151;-91
2022/04/29 04:38:26;;;;;;;6.50;3.77;;;;;;;16.57;78.40;99468.66;6216414;23;20220;-91
2022/04/29 04:40:53;;;;;;;8.37;4.33;;;;;;;16.69;78.75;99469.59;6216085;23;20186;-92
2022/04/29 04:43:20;;;;;;;10.13;4.70;;;;;;;16.68;78.13;99475.84;6214943;23;20236;-91
2022/04/29 04:45:46;;;;;;;9.23;5.00;;;;;;;16.72;77.90;99472.03;6216183;23;20164;-90
2022/04/29 04:48:12;;;;;;;8.87;3.87;;;;;;;16.98;77.32;99471.78;6215923;23;20176;-92
2022/04/29 04:50:38;;;;;;;7.77;4.53;;;;;;;17.18;76.21;99473.84;6216714;23;20476;-91
2022/04/29 04:53:03;;;;;;;8.03;4.17;;;;;;;17.30;74.90;99464.13;6214892;23;20184;-92
2022/04/29 04:55:29;;;;;;;9.53;4.27;;;;;;;17.34;74.05;99473.53;6215905;23;20577;-91
2022/04/29 04:57:57;;;;;;;11.67;4.57;;;;;;;17.55;74.20;99468.47;6215862;23;20203;-93
2022/04/29 05:00:28;;;;;;;10.37;5.13;;;;;;;17.74;73.00;99469.59;6214850;23;20555;-92
2022/04/29 05:03:05;;;;;;;9.47;4.90;;;;;;;18.20;72.15;99469.53;6214769;23;20144;-93
2022/04/29 05:05:32;;;;;;;9.30;4.67;;;;;;;18.52;71.45;99471.47;6214637;23;20156;-90
2022/04/29 05:08:06;;;;;;;8.93;4.87;;;;;;;18.39;70.01;99468.94;6215766;23;20181;-91
2022/04/29 05:10:32;;;;;;;13.60;5.50;;;;;;;18.31;70.26;99468.69;6214824;23;20177;-90
2022/04/29 05:12:57;;;;;;;10.13;4.90;;;;;;;18.35;70.99;99473.63;6215626;23;20154;-91
2022/04/29 05:15:23;;;;;;;14.07;5.53;;;;;;;18.51;70.55;99473.28;6216198;23;20158;-91
2022/04/29 05:17:48;;;;;;;8.50;4.13;;;;;;;18.31;70.79;99474.84;6215998;23;20200;-90
2022/04/29 05:20:16;;;;;;;8.10;3.70;;;;;;;18.24;71.14;99476.28;6214546;23;20157;-91
2022/04/29 05:22:42;;;;;;;9.00;4.17;;;;;;;18.09;71.34;99472.16;6215677;23;20161;-90
2022/04/29 05:25:08;;;;;;;8.23;4.13;;;;;;;18.03;72.96;99482.44;6214640;23;20673;-91
2022/04/29 05:27:36;;;;;;;11.33;5.57;;;;;;;17.96;72.57;99479.38;6215592;23;20201;-91
2022/04/29 05:30:02;;;;;;;12.77;5.23;;;;;;;18.07;72.68;99483.88;6215552;23;20150;-91
2022/04/29 05:32:29;;;;;;;7.30;4.40;;;;;;;18.13;71.95;99483.41;6215708;23;20581;-92
2022/04/29 05:34:55;;;;;;;8.70;4.80;;;;;;;18.28;72.37;99485.69;6214443;23;20518;-91
2022/04/29 05:37:21;;;;;;;9.67;5.00;;;;;;;18.47;72.31;99485.13;6214426;23;20233;-91
2022/04/29 05:42:30;;;;;;;11.43;6.03;;;;;;;18.27;71.74;99485.81;6215891;23;20239;-91
2022/04/29 05:44:56;;;;;;;10.47;4.97;;;;;;;18.40;71.92;99497.13;6215483;23;20480;-89
2022/04/29 05:47:22;;;;;;;9.23;4.33;;;;;;;18.45;71.51;99492.31;6215720;23;20173;-90
2022/04/29 05:49:47;;;;;;;7.90;3.83;;;;;;;18.58;71.84;99490.41;6215920;23;20558;-90
2022/04/29 05:52:28;;;;;;;9.03;5.33;;;;;;;18.86;72.65;99489.91;6215741;23;20153;-91
2022/04/29 05:55:18;;;;;;;8.47;4.87;;;;;;;19.12;72.06;99494.91;6214312;23;20154;-93
2022/04/29 05:57:47;;;;;;;12.03;4.60;;;;;;;19.21;69.75;99494.16;6215167;23;20621;-91
2022/04/29 06:00:12;;;;;;;9.57;4.97;;;;;;;19.35;68.63;99489.38;6216354;23;20149;-90
2022/04/29 06:02:39;;;;;;;12.47;5.20;;;;;;;19.33;68.06;99495.78;6216301;23;20510;-90
2022/04/29 06:05:05;;;;;;;8.97;4.83;;;;;;;19.29;68.17;99494.34;6216308;23;20149;-90
2022/04/29 06:07:36;;;;;;;12.40;4.40;;;;;;;19.40;67.71;99497.84;6217523;23;20206;-90
2022/04/29 06:10:02;;;;;;;9.60;4.80;;;;;;;19.21;67.25;99494.16;6217334;23;20197;-91
2022/04/29 06:12:27;;;;;;;9.27;4.03;;;;;;;18.91;66.76;99493.03;6217551;23;20157;-91
2022/04/29 06:14:53;;;;;;;8.60;4.23;;;;;;;18.84;68.20;99491.00;6217179;23;20169;-90
2022/04/29 06:17:18;;;;;;;8.97;4.50;;;;;;;18.90;68.38;99490.47;6218294;23;20152;-89
2022/04/29 06:19:49;;;;;;;10.70;5.27;;;;;;;18.69;68.81;99490.41;6217379;23;20224;-91
2022/04/29 06:22:14;;;;;;;8.27;5.10;;;;;;;18.84;69.49;99489.16;6216486;23;20142;-90
2022/04/29 06:25:05;;;;;;;11.10;5.50;;;;;;;18.87;69.39;99491.56;6217160;23;20160;-90
2022/04/29 06:27:40;;;;;;;;;;;;;;;;;;;;;
2022/04/29 06:30:18;;;;;;;10.33;5.37;;;;;;;19.34;67.10;99490.34;6217885;23;20216;-90
2022/04/29 06:32:57;;;;;;;9.77;4.30;;;;;;;19.32;68.08;99494.94;6217514;23;20221;-90
2022/04/29 06:36:22;;;;;;;11.67;5.17;;;;;;;19.52;66.80;99496.00;6216080;23;20167;-91
2022/04/29 06:38:40;;;;;;;9.27;4.33;;;;;;;19.56;66.11;99494.75;6212628;23;20582;-91
2022/04/29 06:41:09;;;;;;;13.90;5.40;;;;;;;19.66;66.46;99494.81;6215831;23;20153;-90
2022/04/29 06:43:37;;;;;;;10.20;5.03;;;;;;;19.75;65.67;99494.91;6216172;23;20154;-90
2022/04/29 06:46:03;;;;;;;11.43;5.43;;;;;;;19.59;65.16;99499.81;6216924;23;20195;-90
2022/04/29 06:48:31;;;;;;;9.70;4.37;;;;;;;19.68;65.86;99501.69;6216888;23;20233;-91
2022/04/29 06:54:08;;;;;;;9.53;4.83;;;;;;;19.94;65.52;99497.66;6217196;23;20258;-92
2022/04/29 06:56:36;;;;;;;7.93;4.97;;;;;;;19.98;64.68;99503.56;6217461;23;20180;-91
2022/04/29 06:59:03;;;;;;;10.13;4.93;;;;;;;19.66;63.92;99506.28;6216044;23;20164;-89
2022/04/29 07:01:29;;;;;;;7.97;4.37;;;;;;;19.59;64.56;99507.78;6217598;23;20152;-90
2022/04/29 07:04:07;;;;;;;8.50;4.50;;;;;;;19.50;65.14;99511.19;6241104;23;20424;-91
2022/04/29 07:06:32;;;;;;;8.63;4.83;;;;;;;19.18;65.56;99513.00;6215781;23;20154;-90
2022/04/29 07:08:58;;;;;;;9.30;5.33;;;;;;;19.28;66.22;99514.78;6215730;23;20284;-90
2022/04/29 07:11:25;;;;;;;9.83;4.23;;;;;;;19.43;65.49;99510.03;6217148;23;20479;-91
2022/04/29 07:13:58;;;;;;;8.50;4.17;;;;;;;19.18;66.06;99516.47;6215560;23;20215;-93
2022/04/29 07:16:24;;;;;;;8.93;4.53;;;;;;;19.12;66.09;99509.03;6215922;23;20155;-90
2022/04/29 07:21:38;;;;;;;11.13;5.10;;;;;;;19.15;65.99;99521.22;6211619;23;20244;-91
2022/04/29 07:24:04;;;;;;;11.83;5.57;;;;;;;19.03;67.45;99518.59;6215621;23;20483;-89
2022/04/29 07:26:39;;;;;;;10.27;5.27;;;;;;;19.03;65.79;99513.28;6215472;23;20154;-92
2022/04/29 07:29:07;;;;;;;9.30;4.77;;;;;;;19.03;66.58;99513.28;6215846;23;20178;-90
2022/04/29 07:31:32;;;;;;;11.03;5.47;;;;;;;19.26;65.97;99518.53;6216566;23;20589;-90
2022/04/29 07:34:01;;;;;;;11.40;5.23;;;;;;;19.24;66.26;99521.31;6215438;23;20157;-90
2022/04/29 07:41:54;;;;;;;8.73;5.13;;;;;;;19.81;65.58;99510.31;6216561;23;20242;-92
2022/04/29 07:44:22;;;;;;;11.10;5.53;;;;;;;19.82;65.14;99520.00;6215290;23;20157;-90
2022/04/29 07:46:54;;;;;;;10.63;5.40;;;;;;;19.90;65.32;99514.03;6216790;23;20590;-92
2022/04/29 07:49:32;;;;;;;11.87;4.90;;;;;;;19.94;65.05;99507.50;6216395;23;20177;-91
2022/04/29 07:51:58;;;;;;;9.07;4.93;;;;;;;19.81;63.77;99515.63;6216424;23;20165;-90
2022/04/29 07:54:23;;;;;;;10.20;4.83;;;;;;;19.63;64.52;99511.06;6216758;23;20225;-89
2022/04/29 07:56:49;;;;;;;12.27;5.20;;;;;;;19.53;65.15;99516.28;6215282;23;20149;-91
2022/04/29 07:59:14;;;;;;;8.80;5.07;;;;;;;19.54;65.46;99520.63;6215272;23;20150;-92
2022/04/29 08:01:43;;;;;;;12.70;5.40;;;;;;;19.75;65.85;99520.66;6216425;23;20225;-91
2022/04/29 08:04:25;;;;;;;11.87;6.23;;;;;;;19.80;65.42;99519.28;6215929;23;20163;-92
2022/04/29 08:06:54;;;;;;;12.40;5.50;;;;;;;19.77;65.75;99513.38;6216778;23;20164;-91
2022/04/29 08:09:22;;;;;;;9.43;5.17;;;;;;;19.79;65.65;99512.28;6216368;23;20180;-92
2022/04/29 08:12:17;;;;;;;10.40;5.30;;;;;;;19.67;65.96;99517.78;6216637;23;20320;-92
2022/04/29 08:15:00;;;;;;;10.37;5.37;;;;;;;19.81;66.41;99506.84;6215927;23;20184;-92
2022/04/29 08:17:38;;;;;;;;;;;;;;;;;;;;;
2022/04/29 08:20:05;;;;;;;11.70;5.67;;;;;;;19.90;65.45;99509.56;6217349;23;20618;-90
2022/04/29 08:22:31;;;;;;;10.33;5.33;;;;;;;19.69;66.10;99514.03;6216150;23;20157;-91
2022/04/29 08:24:56;;;;;;;11.17;5.37;;;;;;;19.60;65.92;99512.16;6240810;23;20153;-90
2022/04/29 08:27:24;;;;;;;24.50;5.47;;;;;;;19.53;66.81;99517.13;6216089;23;20634;-91
2022/04/29 08:29:53;;;;;;;10.67;5.67;;;;;;;19.60;67.33;99517.47;6216772;23;20154;-90
2022/04/29 08:32:18;;;;;;;15.17;6.17;;;;;;;19.58;65.81;99512.25;6216487;23;20177;-90
2022/04/29 08:34:47;;;;;;;10.53;5.50;;;;;;;19.50;66.27;99505.88;6216445;23;20154;-92
2022/04/29 08:37:15;;;;;;;8.83;4.63;;;;;;;19.49;64.77;99514.84;6216119;23;20176;-91
2022/04/29 08:39:42;;;;;;;8.53;3.83;;;;;;;19.70;63.73;99496.25;6212675;23;20212;-91
2022/04/29 08:42:10;;;;;;;7.07;3.80;;;;;;;19.99;63.24;99495.47;6213512;23;20236;-91
2022/04/29 08:44:44;;;;;;;7.07;3.70;;;;;;;20.32;61.17;99496.22;6188479;23;20158;-91
2022/04/29 08:47:30;;;;;;;8.13;4.03;;;;;;;20.72;60.36;99491.75;6214754;23;20154;-92
2022/04/29 08:50:24;;;;;;;5.87;3.10;;;;;;;21.18;56.83;99489.34;6213479;23;20161;-92
2022/04/29 08:53:08;;;;;;;6.13;3.50;;;;;;;21.59;53.51;99482.91;6215794;23;20138;-93
2022/04/29 08:59:19;;;;;;;7.77;3.60;;;;;;;21.78;50.96;99482.03;6215534;23;20254;-93
2022/04/29 09:01:47;;;;;;;6.10;3.57;;;;;;;22.09;51.70;99472.84;6154079;23;20226;-95
2022/04/29 09:04:37;;;;;;;8.10;3.87;;;;;;;22.42;52.42;99472.34;6154040;23;20150;-92
2022/04/29 09:14:28;;;;;;;5.90;3.40;;;;;;;23.58;49.49;99467.97;6009850;23;20739;-92
2022/04/29 09:16:57;;;;;;;11.53;3.60;;;;;;;23.47;48.04;99467.34;5926220;24;20304;-95
2022/04/29 09:19:38;;;;;;;5.70;3.43;;;;;;;23.46;49.99;99469.19;5925648;24;20172;-94
2022/04/29 09:22:13;;;;;;;7.23;3.57;;;;;;;23.83;48.48;99464.47;5926184;24;20156;-94
2022/04/29 09:25:32;;;;;;;7.20;3.93;;;;;;;23.92;48.12;99459.16;5926166;24;20160;-95
2022/04/29 09:28:25;;;;;;;8.63;4.13;;;;;;;24.34;47.46;99452.09;5963531;23;20197;-94
2022/04/29 09:35:04;;;;;;;8.70;3.47;;;;;;;24.59;43.40;99453.88;5986423;23;20174;-93
2022/04/29 09:51:57;;;;;;;5.93;2.40;;;;;;;25.70;41.92;99428.44;5938711;24;20183;-91
2022/04/29 09:58:29;;;;;;;6.47;3.33;;;;;;;26.07;42.87;99426.84;6011509;23;20149;-92
2022/04/29 10:01:18;;;;;;;7.53;3.33;;;;;;;25.96;41.06;99429.91;5907099;24;20164;-92
2022/04/29 10:10:39;;;;;;;3.87;2.17;;;;;;;25.55;41.71;99406.81;5822230;24;20175;-93
2022/04/29 10:23:39;;;;;;;5.27;2.63;;;;;;;25.53;42.22;99406.13;6006081;23;20612;-93
2022/04/29 10:26:06;;;;;;;6.23;3.03;;;;;;;;;;6066479;23;20164;-93
2022/04/29 10:29:00;;;;;;;4.90;3.00;;;;;;;24.84;40.29;99417.28;6084350;23;20225;-93
2022/04/29 10:34:55;;;;;;;3.47;2.27;;;;;;;25.19;40.48;99413.47;6005930;23;20206;-92
2022/04/29 10:38:00;;;;;;;6.03;2.60;;;;;;;25.23;40.34;99418.34;6093065;23;20180;-92
2022/04/29 10:47:41;;;;;;;5.03;1.83;;;;;;;25.96;37.64;99411.09;6095485;23;20228;-92
2022/04/29 10:50:39;;;;;;;7.63;2.53;;;;;;;26.29;39.43;99409.16;6069297;23;20966;-94
2022/04/29 10:57:12;;;;;;;3.63;1.83;;;;;;;26.71;36.63;99404.28;6009249;23;20166;-92
2022/04/29 11:00:18;;;;;;;4.60;2.60;;;;;;;26.73;35.64;99396.00;6074651;23;20164;-92
2022/04/29 11:02:44;;;;;;;4.23;2.27;;;;;;;26.91;35.54;99393.94;5986711;23;20163;-93
2022/04/29 11:08:35;;;;;;;4.07;2.30;;;;;;;26.73;35.00;99385.25;5982049;24;20586;-91
2022/04/29 11:24:49;;;;;;;4.13;2.22;;;;;;;27.01;35.31;99359.56;5953989;24;20677;-92
2022/04/29 11:27:57;;;;;;;4.85;2.75;;;;;;;27.04;35.63;99355.69;5954285;24;20529;-94
2022/04/29 11:31:03;;;;;;;5.15;2.40;;;;;;;27.11;35.54;99353.94;5914507;24;20164;-92
2022/04/29 11:33:44;;;;;;;6.55;2.58;;;;;;;27.01;35.65;99356.88;5946691;24;20170;-95
2022/04/29 11:39:20;;;;;;;5.75;2.70;;;;;;;27.10;34.97;99358.47;5980764;24;20174;-91
2022/04/29 11:42:01;;;;;;;5.40;2.50;;;;;;;26.55;34.88;99366.72;5981340;24;20573;-90
2022/04/29 11:44:42;;;;;;;7.88;3.08;;;;;;;26.30;36.24;99348.19;5963057;24;20238;-90
2022/04/29 11:47:36;;;;;;;5.15;2.60;;;;;;;26.24;35.74;99352.41;5954148;24;20260;-92
2022/04/29 11:50:06;;;;;;;4.07;2.23;;;;;;;25.79;35.86;99349.50;5994312;23;20267;-92
2022/04/29 11:53:02;;;;;;;5.03;2.60;;;;;;;26.00;37.22;99344.41;5983436;23;20166;-91
2022/04/29 11:55:57;;;;;;;5.33;3.03;;;;;;;25.94;36.68;99339.75;6009308;23;20186;-91
2022/04/29 11:59:03;;;;;;;5.83;2.97;;;;;;;26.18;37.22;99336.97;5999888;23;20162;-95
2022/04/29 12:01:54;;;;;;;4.30;2.30;;;;;;;26.50;36.61;99342.19;6071507;23;20160;-90
2022/04/29 12:05:44;;;;;;;;;;;;;;;;;;;;;
2022/04/29 12:08:09;;;;;;;5.73;3.03;;;;;;;26.26;38.03;99323.50;6009110;23;20209;-90
2022/04/29 12:10:48;;;;;;;6.33;2.87;;;;;;;26.51;39.82;99310.78;6094273;23;20164;-92
2022/04/29 12:14:28;;;;;;;;;;;;;;;;;;;;;
2022/04/29 12:52:01;;;;;;;5.03;2.55;;;;;;;27.98;36.53;99278.66;5953624;24;20229;-94
2022/04/29 12:59:05;;;;;;;4.70;2.83;;;;;;;27.58;36.77;99291.75;5816990;24;20394;-94
2022/04/29 13:02:44;;;;;;;5.45;3.03;;;;;;;27.25;36.99;99288.53;5811080;24;20167;-94
2022/04/29 13:05:35;;;;;;;5.57;2.40;;;;;;;26.65;38.78;99285.84;5817891;24;20604;-93
2022/04/29 13:15:05;;;;;;;7.50;3.33;;;;;;;26.22;40.35;99280.03;5713407;25;20176;-92
2022/04/29 13:17:31;;;;;;;5.33;3.30;;;;;;;25.85;40.17;99282.53;5713476;25;20169;-92
2022/04/29 13:19:58;;;;;;;7.13;3.20;;;;;;;25.22;41.49;99278.97;5700656;24;20169;-92
2022/04/29 13:23:11;;;;;;;4.60;2.63;;;;;;;24.77;42.83;99274.94;5829517;24;20234;-92
2022/04/29 13:26:06;;;;;;;5.73;3.60;;;;;;;24.62;42.95;99278.47;5898211;24;20184;-92
2022/04/29 13:28:56;;;;;;;6.73;3.43;;;;;;;24.90;43.66;99269.13;5980429;23;20442;-92
2022/04/29 13:31:39;;;;;;;8.93;3.07;;;;;;;24.81;43.04;99273.66;5994973;23;20162;-92
2022/04/29 13:34:05;;;;;;;6.57;3.13;;;;;;;24.67;43.28;99274.28;6144463;23;20165;-91
2022/04/29 13:36:38;;;;;;;5.63;2.83;;;;;;;24.48;44.26;99274.59;6215424;23;20196;-92
2022/04/29 13:39:08;;;;;;;5.80;3.43;;;;;;;24.60;44.18;99273.28;6215307;23;20145;-92
2022/04/29 13:41:40;;;;;;;5.30;3.37;;;;;;;24.55;43.59;99269.41;6215439;23;20150;-92
2022/04/29 13:44:10;;;;;;;5.33;3.10;;;;;;;24.56;44.02;99271.91;6215215;23;20149;-92
2022/04/29 13:46:37;;;;;;;6.93;3.10;;;;;;;24.28;44.53;99270.53;6215443;23;20228;-88
2022/04/29 13:49:03;;;;;;;6.80;3.10;;;;;;;24.18;44.98;99261.81;6215292;23;20173;-92
2022/04/29 13:51:31;;;;;;;6.43;3.33;;;;;;;24.29;45.06;99256.16;6239210;23;20181;-92
2022/04/29 13:53:59;;;;;;;5.40;3.17;;;;;;;24.23;45.56;99264.84;6213844;23;20157;-92
2022/04/29 13:56:30;;;;;;;6.90;3.40;;;;;;;23.96;45.48;99259.69;6215136;23;20176;-91
2022/04/29 13:58:57;;;;;;;6.17;3.23;;;;;;;23.90;46.56;99263.03;6215793;23;20137;-91
2022/04/29 14:01:25;;;;;;;6.13;3.60;;;;;;;24.09;45.77;99257.41;6239004;23;20166;-90
2022/04/29 14:03:52;;;;;;;8.23;3.13;;;;;;;24.17;45.71;99262.81;6214187;23;20153;-91
2022/04/29 14:06:19;;;;;;;8.33;3.67;;;;;;;24.36;45.42;99267.88;6214868;23;20490;-91
2022/04/29 14:08:45;;;;;;;5.93;3.23;;;;;;;24.39;45.90;99259.50;6214868;23;20170;-90
2022/04/29 14:11:15;;;;;;;6.23;3.20;;;;;;;24.10;46.38;99259.09;6213834;23;20158;-90
2022/04/29 14:13:42;;;;;;;6.60;3.37;;;;;;;23.88;45.45;99254.31;6214856;23;20150;-90
2022/04/29 14:16:09;;;;;;;6.23;2.43;;;;;;;23.89;46.07;99250.63;6214288;23;20500;-91
2022/04/29 14:18:35;;;;;;;8.40;3.90;;;;;;;23.88;45.31;99259.66;6215550;23;20142;-91
2022/04/29 14:21:05;;;;;;;7.10;3.67;;;;;;;23.97;46.95;99264.06;6216090;23;20165;-90
2022/04/29 14:23:32;;;;;;;7.57;3.00;;;;;;;24.23;46.25;99260.31;6215020;23;20176;-91
2022/04/29 14:25:59;;;;;;;5.20;2.83;;;;;;;24.28;45.61;99259.81;6241428;23;20526;-91
2022/04/29 14:28:26;;;;;;;6.70;3.40;;;;;;;24.41;45.11;99262.84;6240737;23;20256;-91
2022/04/29 14:30:53;;;;;;;5.17;3.17;;;;;;;24.43;44.79;99263.53;6215982;23;20153;-90
2022/04/29 14:33:21;;;;;;;7.93;4.00;;;;;;;24.30;44.28;99261.34;6216911;23;20164;-91
2022/04/29 14:35:51;;;;;;;7.20;3.07;;;;;;;24.24;45.62;99256.63;6217108;23;20150;-90
2022/04/29 14:38:18;;;;;;;5.87;3.10;;;;;;;24.28;46.22;99257.13;6216727;23;20567;-91
2022/04/29 14:40:47;;;;;;;7.00;3.27;;;;;;;24.30;46.20;99255.13;6216858;23;20216;-91
2022/04/29 14:43:16;;;;;;;7.23;3.07;;;;;;;24.35;42.19;99252.78;6217146;23;20150;-91
2022/04/29 14:45:43;;;;;;;6.07;3.53;;;;;;;24.30;43.45;99247.09;6215584;23;20176;-90
2022/04/29 14:48:11;;;;;;;5.50;2.77;;;;;;;24.15;42.73;99252.25;6215580;23;20256;-91
2022/04/29 14:50:53;;;;;;;5.57;3.10;;;;;;;23.82;42.35;99250.44;6217593;23;20149;-92
2022/04/29 14:53:35;;;;;;;;;;;;;;;;;;;;;
2022/04/29 14:56:05;;;;;;;7.00;3.17;;;;;;;23.85;42.99;99255.47;6216785;23;20324;-91
2022/04/29 14:58:44;;;;;;;4.67;2.50;;;;;;;23.81;42.47;99254.97;6215426;23;20157;-91
2022/04/29 15:01:33;;;;;;;6.57;3.00;;;;;;;23.63;42.78;99262.25;6216200;23;20138;-92
2022/04/29 15:04:04;;;;;;;6.60;3.20;;;;;;;23.73;43.18;99265.63;6171439;23;20173;-90
2022/04/29 15:06:53;;;;;;;6.70;3.13;;;;;;;23.72;43.34;99269.31;6216427;23;20150;-91
2022/04/29 15:17:55;;;;;;;7.97;4.00;;;;;;;23.74;41.57;99259.28;6216360;23;20153;-91
2022/04/29 15:20:21;;;;;;;4.53;2.33;;;;;;;23.78;41.74;99254.44;6216496;23;20149;-91
2022/04/29 15:23:08;;;;;;;5.37;2.77;;;;;;;23.78;41.48;99262.47;6216656;23;20162;-92
2022/04/29 15:25:44;;;;;;;5.30;3.10;;;;;;;23.53;41.98;99266.84;6239339;23;20206;-91
2022/04/29 15:28:14;;;;;;;6.20;3.07;;;;;;;23.47;42.25;99264.00;6215087;23;20173;-90
2022/04/29 15:30:48;;;;;;;7.83;3.70;;;;;;;23.48;41.86;99266.50;6215886;23;20150;-91
2022/04/29 15:33:20;;;;;;;5.87;3.07;;;;;;;23.38;41.97;99262.25;6190114;23;20161;-90
2022/04/29 15:35:49;;;;;;;7.97;3.50;;;;;;;23.44;42.19;99262.47;6216696;23;20138;-92
2022/04/29 15:41:07;;;;;;;7.97;4.20;;;;;;;23.24;42.46;99272.50;6195267;23;20154;-90
2022/04/29 15:43:34;;;;;;;8.27;3.53;;;;;;;23.22;42.54;99273.66;6216343;23;20142;-91
2022/04/29 15:46:02;;;;;;;5.40;2.43;;;;;;;23.27;42.71;99270.53;6216250;23;20566;-91
2022/04/29 15:48:29;;;;;;;5.27;2.93;;;;;;;23.20;42.51;99268.50;6216437;23;20204;-92
2022/04/29 15:51:03;;;;;;;6.20;3.30;;;;;;;23.15;43.12;99275.28;6215114;23;20158;-91
2022/04/29 15:53:31;;;;;;;9.57;3.00;;;;;;;23.18;42.24;99273.16;6216205;23;20137;-90
2022/04/29 15:56:00;;;;;;;4.60;2.60;;;;;;;23.10;42.70;99280.28;6216259;23;20166;-90